sensor_id;sensor_type;location;lat;lon;timestamp;temperature;humidity
1347;DHT22;667;48.796;9.480;2024-01-16T00:01:05;3.20;61.90
1347;DHT22;667;48.796;9.480;2024-01-16T00:03:31;3.20;61.80
1347;DHT22;667;48.796;9.480;2024-01-16T00:05:57;3.10;61.70
1347;DHT22;667;48.796;9.480;2024-01-16T00:08:23;3.10;61.70
1347;DHT22;667;48.796;9.480;2024-01-16T00:10:50;3.10;61.80
1347;DHT22;667;48.796;9.480;2024-01-16T00:13:16;3.10;61.90
1347;DHT22;667;48.796;9.480;2024-01-16T00:15:42;3.10;62.00
1347;DHT22;667;48.796;9.480;2024-01-16T00:18:08;3.20;62.10
1347;DHT22;667;48.796;9.480;2024-01-16T00:20:34;3.20;62.00
1347;DHT22;667;48.796;9.480;2024-01-16T00:23:00;3.10;62.00
1347;DHT22;667;48.796;9.480;2024-01-16T00:25:25;3.10;62.00
1347;DHT22;667;48.796;9.480;2024-01-16T00:27:51;3.10;62.20
1347;DHT22;667;48.796;9.480;2024-01-16T00:30:17;3.10;62.10
1347;DHT22;667;48.796;9.480;2024-01-16T00:32:43;3.10;62.10
1347;DHT22;667;48.796;9.480;2024-01-16T00:35:09;3.10;62.20
1347;DHT22;667;48.796;9.480;2024-01-16T00:37:36;3.10;62.20
1347;DHT22;667;48.796;9.480;2024-01-16T00:40:03;3.10;62.30
1347;DHT22;667;48.796;9.480;2024-01-16T00:42:32;3.10;62.30
1347;DHT22;667;48.796;9.480;2024-01-16T00:44:58;3.20;62.40
1347;DHT22;667;48.796;9.480;2024-01-16T00:47:24;3.20;62.30
1347;DHT22;667;48.796;9.480;2024-01-16T00:49:50;3.20;62.10
1347;DHT22;667;48.796;9.480;2024-01-16T00:52:15;3.20;62.00
1347;DHT22;667;48.796;9.480;2024-01-16T00:54:42;3.20;62.00
1347;DHT22;667;48.796;9.480;2024-01-16T00:57:07;3.20;62.10
1347;DHT22;667;48.796;9.480;2024-01-16T00:59:33;3.20;62.00
1347;DHT22;667;48.796;9.480;2024-01-16T01:01:59;3.20;61.90
1347;DHT22;667;48.796;9.480;2024-01-16T01:04:24;3.20;61.70
1347;DHT22;667;48.796;9.480;2024-01-16T01:06:50;3.20;61.50
1347;DHT22;667;48.796;9.480;2024-01-16T01:09:16;3.20;61.50
1347;DHT22;667;48.796;9.480;2024-01-16T01:11:42;3.20;61.60
1347;DHT22;667;48.796;9.480;2024-01-16T01:14:08;3.20;61.70
1347;DHT22;667;48.796;9.480;2024-01-16T01:16:33;3.20;61.70
1347;DHT22;667;48.796;9.480;2024-01-16T01:18:59;3.30;61.80
1347;DHT22;667;48.796;9.480;2024-01-16T01:21:24;3.30;61.80
1347;DHT22;667;48.796;9.480;2024-01-16T01:23:50;3.30;61.70
1347;DHT22;667;48.796;9.480;2024-01-16T01:26:16;3.30;61.70
1347;DHT22;667;48.796;9.480;2024-01-16T01:28:45;3.30;61.70
1347;DHT22;667;48.796;9.480;2024-01-16T01:31:11;3.30;61.70
1347;DHT22;667;48.796;9.480;2024-01-16T01:33:37;3.30;61.60
1347;DHT22;667;48.796;9.480;2024-01-16T01:36:03;3.30;61.50
1347;DHT22;667;48.796;9.480;2024-01-16T01:38:28;3.30;61.30
1347;DHT22;667;48.796;9.480;2024-01-16T01:40:54;3.30;61.30
1347;DHT22;667;48.796;9.480;2024-01-16T01:43:21;3.20;61.20
1347;DHT22;667;48.796;9.480;2024-01-16T01:46:02;3.20;61.10
1347;DHT22;667;48.796;9.480;2024-01-16T01:48:32;3.20;61.30
1347;DHT22;667;48.796;9.480;2024-01-16T01:50:59;3.20;61.30
1347;DHT22;667;48.796;9.480;2024-01-16T01:53:25;3.20;61.30
1347;DHT22;667;48.796;9.480;2024-01-16T01:55:51;3.20;61.40
1347;DHT22;667;48.796;9.480;2024-01-16T01:58:17;3.20;61.40
1347;DHT22;667;48.796;9.480;2024-01-16T02:00:42;3.20;61.30
1347;DHT22;667;48.796;9.480;2024-01-16T02:03:08;3.20;61.40
1347;DHT22;667;48.796;9.480;2024-01-16T02:05:34;3.20;61.30
1347;DHT22;667;48.796;9.480;2024-01-16T02:08:00;3.20;61.30
1347;DHT22;667;48.796;9.480;2024-01-16T02:10:26;3.20;61.30
1347;DHT22;667;48.796;9.480;2024-01-16T02:12:51;3.20;61.20
1347;DHT22;667;48.796;9.480;2024-01-16T02:15:17;3.20;61.20
1347;DHT22;667;48.796;9.480;2024-01-16T02:17:42;3.20;61.10
1347;DHT22;667;48.796;9.480;2024-01-16T02:20:08;3.20;61.20
1347;DHT22;667;48.796;9.480;2024-01-16T02:22:36;3.20;61.20
1347;DHT22;667;48.796;9.480;2024-01-16T02:25:03;3.20;61.40
1347;DHT22;667;48.796;9.480;2024-01-16T02:27:29;3.20;61.60
1347;DHT22;667;48.796;9.480;2024-01-16T02:29:54;3.20;61.70
1347;DHT22;667;48.796;9.480;2024-01-16T02:32:20;3.20;61.60
1347;DHT22;667;48.796;9.480;2024-01-16T02:34:45;3.20;61.50
1347;DHT22;667;48.796;9.480;2024-01-16T02:37:11;3.20;61.60
1347;DHT22;667;48.796;9.480;2024-01-16T02:39:36;3.20;61.50
1347;DHT22;667;48.796;9.480;2024-01-16T02:42:02;3.20;61.50
1347;DHT22;667;48.796;9.480;2024-01-16T02:44:28;3.20;61.50
1347;DHT22;667;48.796;9.480;2024-01-16T02:46:53;3.20;61.60
1347;DHT22;667;48.796;9.480;2024-01-16T02:49:19;3.30;61.70
1347;DHT22;667;48.796;9.480;2024-01-16T02:51:44;3.20;61.40
1347;DHT22;667;48.796;9.480;2024-01-16T02:54:10;3.20;61.30
1347;DHT22;667;48.796;9.480;2024-01-16T02:56:37;3.20;61.40
1347;DHT22;667;48.796;9.480;2024-01-16T02:59:02;3.20;61.50
1347;DHT22;667;48.796;9.480;2024-01-16T03:01:28;3.20;61.50
1347;DHT22;667;48.796;9.480;2024-01-16T03:03:53;3.20;61.50
1347;DHT22;667;48.796;9.480;2024-01-16T03:06:25;3.20;61.50
1347;DHT22;667;48.796;9.480;2024-01-16T03:08:51;3.20;61.40
1347;DHT22;667;48.796;9.480;2024-01-16T03:11:17;3.10;61.10
1347;DHT22;667;48.796;9.480;2024-01-16T03:13:43;3.10;61.00
1347;DHT22;667;48.796;9.480;2024-01-16T03:16:10;3.10;61.00
1347;DHT22;667;48.796;9.480;2024-01-16T03:18:37;3.10;61.00
1347;DHT22;667;48.796;9.480;2024-01-16T03:21:04;3.00;61.00
1347;DHT22;667;48.796;9.480;2024-01-16T03:23:30;3.00;61.20
1347;DHT22;667;48.796;9.480;2024-01-16T03:25:55;3.00;61.30
1347;DHT22;667;48.796;9.480;2024-01-16T03:28:21;3.00;61.30
1347;DHT22;667;48.796;9.480;2024-01-16T03:30:46;3.00;61.20
1347;DHT22;667;48.796;9.480;2024-01-16T03:33:12;3.00;61.40
1347;DHT22;667;48.796;9.480;2024-01-16T03:35:38;2.90;61.30
1347;DHT22;667;48.796;9.480;2024-01-16T03:38:03;3.00;61.40
1347;DHT22;667;48.796;9.480;2024-01-16T03:40:29;3.00;61.50
1347;DHT22;667;48.796;9.480;2024-01-16T03:42:59;3.00;61.40
1347;DHT22;667;48.796;9.480;2024-01-16T03:45:25;3.00;61.10
1347;DHT22;667;48.796;9.480;2024-01-16T03:47:50;3.00;60.90
1347;DHT22;667;48.796;9.480;2024-01-16T03:50:16;3.00;60.80
1347;DHT22;667;48.796;9.480;2024-01-16T03:52:41;3.00;60.70
1347;DHT22;667;48.796;9.480;2024-01-16T03:55:07;3.00;60.70
1347;DHT22;667;48.796;9.480;2024-01-16T03:57:33;2.90;60.40
1347;DHT22;667;48.796;9.480;2024-01-16T03:59:58;2.90;60.50
1347;DHT22;667;48.796;9.480;2024-01-16T04:02:24;2.90;60.60
1347;DHT22;667;48.796;9.480;2024-01-16T04:04:50;2.90;60.60
1347;DHT22;667;48.796;9.480;2024-01-16T04:07:15;2.90;60.60
1347;DHT22;667;48.796;9.480;2024-01-16T04:09:42;2.80;60.50
1347;DHT22;667;48.796;9.480;2024-01-16T04:12:08;2.80;60.40
1347;DHT22;667;48.796;9.480;2024-01-16T04:14:34;2.80;60.40
1347;DHT22;667;48.796;9.480;2024-01-16T04:17:00;2.80;60.60
1347;DHT22;667;48.796;9.480;2024-01-16T04:19:25;2.80;60.70
1347;DHT22;667;48.796;9.480;2024-01-16T04:21:51;2.70;60.60
1347;DHT22;667;48.796;9.480;2024-01-16T04:24:16;2.70;60.60
1347;DHT22;667;48.796;9.480;2024-01-16T04:26:42;2.70;60.60
1347;DHT22;667;48.796;9.480;2024-01-16T04:29:07;2.70;60.60
1347;DHT22;667;48.796;9.480;2024-01-16T04:31:39;2.60;60.50
1347;DHT22;667;48.796;9.480;2024-01-16T04:34:05;2.60;60.60
1347;DHT22;667;48.796;9.480;2024-01-16T04:36:31;2.50;60.60
1347;DHT22;667;48.796;9.480;2024-01-16T04:38:56;2.50;60.80
1347;DHT22;667;48.796;9.480;2024-01-16T04:41:22;2.50;61.00
1347;DHT22;667;48.796;9.480;2024-01-16T04:43:48;2.40;61.00
1347;DHT22;667;48.796;9.480;2024-01-16T04:46:15;2.40;61.20
1347;DHT22;667;48.796;9.480;2024-01-16T04:48:41;2.30;61.30
1347;DHT22;667;48.796;9.480;2024-01-16T04:51:07;2.30;61.40
1347;DHT22;667;48.796;9.480;2024-01-16T04:53:33;2.30;61.60
1347;DHT22;667;48.796;9.480;2024-01-16T04:55:59;2.20;61.70
1347;DHT22;667;48.796;9.480;2024-01-16T04:58:24;2.20;61.90
1347;DHT22;667;48.796;9.480;2024-01-16T05:00:50;2.20;61.90
1347;DHT22;667;48.796;9.480;2024-01-16T05:03:15;2.20;61.90
1347;DHT22;667;48.796;9.480;2024-01-16T05:05:41;2.20;62.00
1347;DHT22;667;48.796;9.480;2024-01-16T05:08:07;2.20;62.10
1347;DHT22;667;48.796;9.480;2024-01-16T05:10:32;2.10;62.10
1347;DHT22;667;48.796;9.480;2024-01-16T05:12:58;2.10;62.10
1347;DHT22;667;48.796;9.480;2024-01-16T05:15:23;2.10;62.10
1347;DHT22;667;48.796;9.480;2024-01-16T05:17:49;2.10;62.00
1347;DHT22;667;48.796;9.480;2024-01-16T05:20:15;2.10;62.00
1347;DHT22;667;48.796;9.480;2024-01-16T05:22:40;2.00;62.00
1347;DHT22;667;48.796;9.480;2024-01-16T05:25:06;2.00;62.00
1347;DHT22;667;48.796;9.480;2024-01-16T05:27:35;1.90;61.90
1347;DHT22;667;48.796;9.480;2024-01-16T05:30:01;1.90;62.00
1347;DHT22;667;48.796;9.480;2024-01-16T05:32:26;1.90;62.10
1347;DHT22;667;48.796;9.480;2024-01-16T05:34:52;1.80;62.80
1347;DHT22;667;48.796;9.480;2024-01-16T05:37:19;1.80;62.00
1347;DHT22;667;48.796;9.480;2024-01-16T05:39:45;1.80;62.30
1347;DHT22;667;48.796;9.480;2024-01-16T05:42:11;1.80;62.40
1347;DHT22;667;48.796;9.480;2024-01-16T05:44:37;1.70;62.40
1347;DHT22;667;48.796;9.480;2024-01-16T05:47:04;1.70;62.50
1347;DHT22;667;48.796;9.480;2024-01-16T05:49:29;1.70;62.60
1347;DHT22;667;48.796;9.480;2024-01-16T05:51:55;1.60;62.50
1347;DHT22;667;48.796;9.480;2024-01-16T05:54:21;1.60;62.80
1347;DHT22;667;48.796;9.480;2024-01-16T05:56:46;1.60;62.80
1347;DHT22;667;48.796;9.480;2024-01-16T05:59:12;1.60;62.80
1347;DHT22;667;48.796;9.480;2024-01-16T06:01:37;1.50;62.80
1347;DHT22;667;48.796;9.480;2024-01-16T06:04:03;1.50;62.90
1347;DHT22;667;48.796;9.480;2024-01-16T06:06:29;1.50;63.00
1347;DHT22;667;48.796;9.480;2024-01-16T06:08:55;1.50;63.20
1347;DHT22;667;48.796;9.480;2024-01-16T06:11:31;1.50;63.20
1347;DHT22;667;48.796;9.480;2024-01-16T06:13:57;1.50;63.30
1347;DHT22;667;48.796;9.480;2024-01-16T06:16:23;1.50;63.50
1347;DHT22;667;48.796;9.480;2024-01-16T06:18:48;1.50;63.30
1347;DHT22;667;48.796;9.480;2024-01-16T06:21:14;1.40;63.40
1347;DHT22;667;48.796;9.480;2024-01-16T06:23:40;1.40;63.60
1347;DHT22;667;48.796;9.480;2024-01-16T06:26:08;1.40;63.70
1347;DHT22;667;48.796;9.480;2024-01-16T06:28:33;1.40;63.70
1347;DHT22;667;48.796;9.480;2024-01-16T06:30:59;1.40;63.70
1347;DHT22;667;48.796;9.480;2024-01-16T06:33:24;1.40;63.70
1347;DHT22;667;48.796;9.480;2024-01-16T06:35:51;1.40;63.80
1347;DHT22;667;48.796;9.480;2024-01-16T06:38:16;1.40;64.10
1347;DHT22;667;48.796;9.480;2024-01-16T06:40:42;1.40;64.10
1347;DHT22;667;48.796;9.480;2024-01-16T06:43:07;1.40;64.10
1347;DHT22;667;48.796;9.480;2024-01-16T06:45:34;1.40;64.20
1347;DHT22;667;48.796;9.480;2024-01-16T06:47:59;1.40;64.30
1347;DHT22;667;48.796;9.480;2024-01-16T06:50:25;1.40;64.40
1347;DHT22;667;48.796;9.480;2024-01-16T06:52:50;1.40;64.50
1347;DHT22;667;48.796;9.480;2024-01-16T06:55:16;1.40;64.60
1347;DHT22;667;48.796;9.480;2024-01-16T06:57:42;1.40;64.60
1347;DHT22;667;48.796;9.480;2024-01-16T07:00:07;1.40;64.80
1347;DHT22;667;48.796;9.480;2024-01-16T07:02:33;1.40;64.80
1347;DHT22;667;48.796;9.480;2024-01-16T07:04:59;1.40;64.80
1347;DHT22;667;48.796;9.480;2024-01-16T07:07:25;1.40;64.90
1347;DHT22;667;48.796;9.480;2024-01-16T07:09:50;1.40;65.00
1347;DHT22;667;48.796;9.480;2024-01-16T07:12:16;1.50;65.10
1347;DHT22;667;48.796;9.480;2024-01-16T07:14:41;1.50;65.20
1347;DHT22;667;48.796;9.480;2024-01-16T07:17:07;1.40;65.00
1347;DHT22;667;48.796;9.480;2024-01-16T07:19:33;1.50;65.10
1347;DHT22;667;48.796;9.480;2024-01-16T07:21:58;1.50;65.30
1347;DHT22;667;48.796;9.480;2024-01-16T07:24:24;1.50;65.40
1347;DHT22;667;48.796;9.480;2024-01-16T07:26:50;1.50;65.50
1347;DHT22;667;48.796;9.480;2024-01-16T07:29:15;1.50;65.40
1347;DHT22;667;48.796;9.480;2024-01-16T07:31:41;1.50;65.40
1347;DHT22;667;48.796;9.480;2024-01-16T07:34:06;1.50;65.50
1347;DHT22;667;48.796;9.480;2024-01-16T07:36:32;1.50;65.40
1347;DHT22;667;48.796;9.480;2024-01-16T07:38:58;1.50;65.50
1347;DHT22;667;48.796;9.480;2024-01-16T07:41:23;1.50;65.60
1347;DHT22;667;48.796;9.480;2024-01-16T07:43:49;1.60;65.90
1347;DHT22;667;48.796;9.480;2024-01-16T07:46:14;1.50;65.90
1347;DHT22;667;48.796;9.480;2024-01-16T07:48:40;1.60;66.00
1347;DHT22;667;48.796;9.480;2024-01-16T07:51:05;1.60;65.90
1347;DHT22;667;48.796;9.480;2024-01-16T07:53:31;1.60;66.00
1347;DHT22;667;48.796;9.480;2024-01-16T07:55:57;1.60;66.10
1347;DHT22;667;48.796;9.480;2024-01-16T07:58:22;1.60;66.20
1347;DHT22;667;48.796;9.480;2024-01-16T08:00:48;1.70;66.30
1347;DHT22;667;48.796;9.480;2024-01-16T08:03:14;1.70;66.10
1347;DHT22;667;48.796;9.480;2024-01-16T08:05:40;1.70;66.10
1347;DHT22;667;48.796;9.480;2024-01-16T08:08:08;1.80;66.20
1347;DHT22;667;48.796;9.480;2024-01-16T08:10:35;1.80;66.10
1347;DHT22;667;48.796;9.480;2024-01-16T08:13:00;1.80;66.00
1347;DHT22;667;48.796;9.480;2024-01-16T08:15:26;1.80;66.00
1347;DHT22;667;48.796;9.480;2024-01-16T08:17:51;1.80;66.10
1347;DHT22;667;48.796;9.480;2024-01-16T08:20:17;1.80;66.00
1347;DHT22;667;48.796;9.480;2024-01-16T08:22:42;1.90;66.10
1347;DHT22;667;48.796;9.480;2024-01-16T08:25:08;1.90;66.10
1347;DHT22;667;48.796;9.480;2024-01-16T08:27:34;2.00;66.10
1347;DHT22;667;48.796;9.480;2024-01-16T08:30:00;2.10;66.20
1347;DHT22;667;48.796;9.480;2024-01-16T08:32:26;2.20;66.20
1347;DHT22;667;48.796;9.480;2024-01-16T08:34:51;2.20;66.10
1347;DHT22;667;48.796;9.480;2024-01-16T08:37:17;2.30;66.00
1347;DHT22;667;48.796;9.480;2024-01-16T08:39:43;2.30;65.70
1347;DHT22;667;48.796;9.480;2024-01-16T08:42:08;2.40;65.60
1347;DHT22;667;48.796;9.480;2024-01-16T08:44:40;2.50;65.50
1347;DHT22;667;48.796;9.480;2024-01-16T08:47:06;2.50;65.20
1347;DHT22;667;48.796;9.480;2024-01-16T08:49:32;2.60;65.10
1347;DHT22;667;48.796;9.480;2024-01-16T08:51:58;2.60;64.90
1347;DHT22;667;48.796;9.480;2024-01-16T08:54:24;2.60;64.60
1347;DHT22;667;48.796;9.480;2024-01-16T08:56:51;2.70;64.30
1347;DHT22;667;48.796;9.480;2024-01-16T08:59:16;2.70;64.20
1347;DHT22;667;48.796;9.480;2024-01-16T09:01:42;2.70;64.00
1347;DHT22;667;48.796;9.480;2024-01-16T09:04:08;2.70;63.70
1347;DHT22;667;48.796;9.480;2024-01-16T09:06:33;2.70;63.40
1347;DHT22;667;48.796;9.480;2024-01-16T09:08:59;2.80;63.20
1347;DHT22;667;48.796;9.480;2024-01-16T09:11:25;2.80;62.90
1347;DHT22;667;48.796;9.480;2024-01-16T09:13:50;2.90;62.90
1347;DHT22;667;48.796;9.480;2024-01-16T09:16:17;2.90;62.90
1347;DHT22;667;48.796;9.480;2024-01-16T09:18:42;3.00;62.80
1347;DHT22;667;48.796;9.480;2024-01-16T09:21:08;3.00;62.60
1347;DHT22;667;48.796;9.480;2024-01-16T09:23:33;3.00;62.40
1347;DHT22;667;48.796;9.480;2024-01-16T09:25:59;3.10;62.10
1347;DHT22;667;48.796;9.480;2024-01-16T09:28:25;3.20;61.90
1347;DHT22;667;48.796;9.480;2024-01-16T09:30:50;3.20;61.60
1347;DHT22;667;48.796;9.480;2024-01-16T09:33:16;3.20;60.90
1347;DHT22;667;48.796;9.480;2024-01-16T09:35:42;3.20;60.30
1347;DHT22;667;48.796;9.480;2024-01-16T09:38:07;3.30;60.10
1347;DHT22;667;48.796;9.480;2024-01-16T09:40:34;3.30;59.80
1347;DHT22;667;48.796;9.480;2024-01-16T09:43:01;3.30;59.50
1347;DHT22;667;48.796;9.480;2024-01-16T09:45:26;3.40;59.50
1347;DHT22;667;48.796;9.480;2024-01-16T09:47:54;3.40;59.30
1347;DHT22;667;48.796;9.480;2024-01-16T09:50:21;3.40;59.00
1347;DHT22;667;48.796;9.480;2024-01-16T09:52:48;3.40;58.80
1347;DHT22;667;48.796;9.480;2024-01-16T09:55:15;3.50;58.70
1347;DHT22;667;48.796;9.480;2024-01-16T09:57:41;3.50;58.50
1347;DHT22;667;48.796;9.480;2024-01-16T10:00:09;3.60;58.30
1347;DHT22;667;48.796;9.480;2024-01-16T10:02:42;3.60;58.10
1347;DHT22;667;48.796;9.480;2024-01-16T10:05:11;3.60;58.00
1347;DHT22;667;48.796;9.480;2024-01-16T10:07:41;3.70;58.00
1347;DHT22;667;48.796;9.480;2024-01-16T10:10:09;3.80;57.70
1347;DHT22;667;48.796;9.480;2024-01-16T10:12:39;3.80;57.50
1347;DHT22;667;48.796;9.480;2024-01-16T10:15:08;3.90;57.30
1347;DHT22;667;48.796;9.480;2024-01-16T10:17:38;4.00;57.00
1347;DHT22;667;48.796;9.480;2024-01-16T10:20:04;4.10;56.60
1347;DHT22;667;48.796;9.480;2024-01-16T10:22:30;4.20;56.40
1347;DHT22;667;48.796;9.480;2024-01-16T10:25:25;4.30;56.20
1347;DHT22;667;48.796;9.480;2024-01-16T10:28:03;4.50;56.10
1347;DHT22;667;48.796;9.480;2024-01-16T10:30:30;5.00;55.50
1347;DHT22;667;48.796;9.480;2024-01-16T10:32:55;5.20;54.60
1347;DHT22;667;48.796;9.480;2024-01-16T10:35:37;5.30;53.80
1347;DHT22;667;48.796;9.480;2024-01-16T10:38:02;5.40;53.60
1347;DHT22;667;48.796;9.480;2024-01-16T10:40:28;5.50;53.30
1347;DHT22;667;48.796;9.480;2024-01-16T10:43:04;5.50;53.10
1347;DHT22;667;48.796;9.480;2024-01-16T10:45:31;5.50;53.30
1347;DHT22;667;48.796;9.480;2024-01-16T10:48:07;5.50;53.20
1347;DHT22;667;48.796;9.480;2024-01-16T10:50:34;5.50;52.80
1347;DHT22;667;48.796;9.480;2024-01-16T10:53:04;5.50;52.70
1347;DHT22;667;48.796;9.480;2024-01-16T10:55:29;5.50;52.80
1347;DHT22;667;48.796;9.480;2024-01-16T10:57:58;5.50;52.80
1347;DHT22;667;48.796;9.480;2024-01-16T11:00:27;5.50;52.90
1347;DHT22;667;48.796;9.480;2024-01-16T11:02:59;5.90;53.10
1347;DHT22;667;48.796;9.480;2024-01-16T11:05:26;6.20;52.40
1347;DHT22;667;48.796;9.480;2024-01-16T11:07:54;6.20;51.70
1347;DHT22;667;48.796;9.480;2024-01-16T11:10:21;6.30;52.00
1347;DHT22;667;48.796;9.480;2024-01-16T11:12:47;6.40;52.20
1347;DHT22;667;48.796;9.480;2024-01-16T11:15:15;6.50;52.40
1347;DHT22;667;48.796;9.480;2024-01-16T11:17:44;6.60;52.20
1347;DHT22;667;48.796;9.480;2024-01-16T11:20:10;6.70;51.80
1347;DHT22;667;48.796;9.480;2024-01-16T11:22:39;6.70;51.00
1347;DHT22;667;48.796;9.480;2024-01-16T11:25:12;6.80;50.60
1347;DHT22;667;48.796;9.480;2024-01-16T11:27:40;6.90;50.10
1347;DHT22;667;48.796;9.480;2024-01-16T11:30:07;6.90;49.70
1347;DHT22;667;48.796;9.480;2024-01-16T11:32:41;7.00;49.70
1347;DHT22;667;48.796;9.480;2024-01-16T11:35:07;7.00;49.30
1347;DHT22;667;48.796;9.480;2024-01-16T11:37:34;7.00;48.80
1347;DHT22;667;48.796;9.480;2024-01-16T11:42:46;7.00;49.00
1347;DHT22;667;48.796;9.480;2024-01-16T11:48:12;7.00;49.10
1347;DHT22;667;48.796;9.480;2024-01-16T11:50:38;7.00;48.80
1347;DHT22;667;48.796;9.480;2024-01-16T11:53:04;7.00;48.80
1347;DHT22;667;48.796;9.480;2024-01-16T12:01:11;6.90;48.80
1347;DHT22;667;48.796;9.480;2024-01-16T12:03:37;6.80;48.70
1347;DHT22;667;48.796;9.480;2024-01-16T12:06:03;6.80;48.70
1347;DHT22;667;48.796;9.480;2024-01-16T12:08:32;6.80;48.70
1347;DHT22;667;48.796;9.480;2024-01-16T12:10:58;6.80;48.50
1347;DHT22;667;48.796;9.480;2024-01-16T12:13:25;6.70;48.90
1347;DHT22;667;48.796;9.480;2024-01-16T12:16:00;6.70;48.20
1347;DHT22;667;48.796;9.480;2024-01-16T12:18:26;6.60;48.20
1347;DHT22;667;48.796;9.480;2024-01-16T12:20:52;6.60;48.70
1347;DHT22;667;48.796;9.480;2024-01-16T12:23:17;6.60;48.20
1347;DHT22;667;48.796;9.480;2024-01-16T12:25:44;6.60;48.20
1347;DHT22;667;48.796;9.480;2024-01-16T12:28:10;6.60;48.20
1347;DHT22;667;48.796;9.480;2024-01-16T12:30:37;6.50;48.20
1347;DHT22;667;48.796;9.480;2024-01-16T12:33:07;6.50;48.30
1347;DHT22;667;48.796;9.480;2024-01-16T12:35:43;6.40;48.10
1347;DHT22;667;48.796;9.480;2024-01-16T12:38:13;6.40;48.20
1347;DHT22;667;48.796;9.480;2024-01-16T12:40:57;6.30;48.20
1347;DHT22;667;48.796;9.480;2024-01-16T12:43:23;6.20;48.30
1347;DHT22;667;48.796;9.480;2024-01-16T12:45:56;6.20;48.30
1347;DHT22;667;48.796;9.480;2024-01-16T12:48:25;6.20;48.50
1347;DHT22;667;48.796;9.480;2024-01-16T12:50:58;6.20;48.60
1347;DHT22;667;48.796;9.480;2024-01-16T12:53:24;6.20;48.40
1347;DHT22;667;48.796;9.480;2024-01-16T12:55:58;6.20;48.20
1347;DHT22;667;48.796;9.480;2024-01-16T12:58:25;6.20;48.20
1347;DHT22;667;48.796;9.480;2024-01-16T13:00:53;6.10;48.00
1347;DHT22;667;48.796;9.480;2024-01-16T13:03:21;6.10;47.90
1347;DHT22;667;48.796;9.480;2024-01-16T13:05:55;6.10;47.80
1347;DHT22;667;48.796;9.480;2024-01-16T13:08:21;6.10;47.60
1347;DHT22;667;48.796;9.480;2024-01-16T13:11:02;6.20;47.80
1347;DHT22;667;48.796;9.480;2024-01-16T13:13:28;6.20;46.90
1347;DHT22;667;48.796;9.480;2024-01-16T13:15:54;6.10;46.70
1347;DHT22;667;48.796;9.480;2024-01-16T13:18:25;6.10;46.20
1347;DHT22;667;48.796;9.480;2024-01-16T13:20:51;6.20;46.10
1347;DHT22;667;48.796;9.480;2024-01-16T13:23:18;6.10;46.00
1347;DHT22;667;48.796;9.480;2024-01-16T13:25:45;6.10;46.20
1347;DHT22;667;48.796;9.480;2024-01-16T13:28:15;6.10;46.20
1347;DHT22;667;48.796;9.480;2024-01-16T13:30:41;6.00;46.20
1347;DHT22;667;48.796;9.480;2024-01-16T13:33:07;6.00;46.30
1347;DHT22;667;48.796;9.480;2024-01-16T13:35:39;6.00;46.30
1347;DHT22;667;48.796;9.480;2024-01-16T13:38:08;6.00;46.20
1347;DHT22;667;48.796;9.480;2024-01-16T13:40:35;6.00;46.20
1347;DHT22;667;48.796;9.480;2024-01-16T13:43:01;6.00;46.20
1347;DHT22;667;48.796;9.480;2024-01-16T13:45:27;6.00;46.50
1347;DHT22;667;48.796;9.480;2024-01-16T13:47:54;6.00;46.80
1347;DHT22;667;48.796;9.480;2024-01-16T13:50:19;6.10;46.90
1347;DHT22;667;48.796;9.480;2024-01-16T13:52:45;6.10;46.90
1347;DHT22;667;48.796;9.480;2024-01-16T13:55:11;6.10;47.00
1347;DHT22;667;48.796;9.480;2024-01-16T13:57:37;6.10;46.90
1347;DHT22;667;48.796;9.480;2024-01-16T14:00:04;6.10;46.70
1347;DHT22;667;48.796;9.480;2024-01-16T14:02:30;6.10;46.60
1347;DHT22;667;48.796;9.480;2024-01-16T14:04:55;6.10;46.60
1347;DHT22;667;48.796;9.480;2024-01-16T14:07:21;6.10;46.80
1347;DHT22;667;48.796;9.480;2024-01-16T14:09:47;6.10;46.80
1347;DHT22;667;48.796;9.480;2024-01-16T14:12:13;6.10;46.70
1347;DHT22;667;48.796;9.480;2024-01-16T14:14:40;6.10;46.60
1347;DHT22;667;48.796;9.480;2024-01-16T14:17:06;6.10;46.70
1347;DHT22;667;48.796;9.480;2024-01-16T14:19:34;6.10;46.80
1347;DHT22;667;48.796;9.480;2024-01-16T14:22:00;6.00;46.80
1347;DHT22;667;48.796;9.480;2024-01-16T14:24:26;6.00;46.80
1347;DHT22;667;48.796;9.480;2024-01-16T14:26:51;6.00;46.70
1347;DHT22;667;48.796;9.480;2024-01-16T14:29:17;5.90;46.60
1347;DHT22;667;48.796;9.480;2024-01-16T14:31:43;5.90;46.40
1347;DHT22;667;48.796;9.480;2024-01-16T14:34:12;5.90;46.40
1347;DHT22;667;48.796;9.480;2024-01-16T14:36:41;5.90;46.50
1347;DHT22;667;48.796;9.480;2024-01-16T14:39:07;5.80;46.70
1347;DHT22;667;48.796;9.480;2024-01-16T14:41:39;5.80;46.90
1347;DHT22;667;48.796;9.480;2024-01-16T14:44:05;5.80;47.00
1347;DHT22;667;48.796;9.480;2024-01-16T14:46:31;5.70;46.80
1347;DHT22;667;48.796;9.480;2024-01-16T14:48:58;5.70;47.00
1347;DHT22;667;48.796;9.480;2024-01-16T14:51:23;5.70;47.20
1347;DHT22;667;48.796;9.480;2024-01-16T14:53:49;5.60;47.20
1347;DHT22;667;48.796;9.480;2024-01-16T14:56:15;5.60;47.60
1347;DHT22;667;48.796;9.480;2024-01-16T14:58:40;5.60;48.00
1347;DHT22;667;48.796;9.480;2024-01-16T15:01:06;5.50;48.20
1347;DHT22;667;48.796;9.480;2024-01-16T15:03:32;5.50;48.70
1347;DHT22;667;48.796;9.480;2024-01-16T15:05:58;5.40;48.80
1347;DHT22;667;48.796;9.480;2024-01-16T15:08:23;5.40;48.80
1347;DHT22;667;48.796;9.480;2024-01-16T15:10:51;5.30;48.70
1347;DHT22;667;48.796;9.480;2024-01-16T15:13:17;5.30;49.10
1347;DHT22;667;48.796;9.480;2024-01-16T15:15:42;5.20;49.60
1347;DHT22;667;48.796;9.480;2024-01-16T15:18:08;5.10;49.90
1347;DHT22;667;48.796;9.480;2024-01-16T15:20:34;5.00;50.40
1347;DHT22;667;48.796;9.480;2024-01-16T15:22:59;4.90;50.90
1347;DHT22;667;48.796;9.480;2024-01-16T15:25:25;4.80;51.10
1347;DHT22;667;48.796;9.480;2024-01-16T15:27:51;4.80;51.40
1347;DHT22;667;48.796;9.480;2024-01-16T15:30:20;4.70;51.50
1347;DHT22;667;48.796;9.480;2024-01-16T15:32:57;4.60;51.50
1347;DHT22;667;48.796;9.480;2024-01-16T15:35:22;4.50;51.70
1347;DHT22;667;48.796;9.480;2024-01-16T15:37:48;4.40;52.10
1347;DHT22;667;48.796;9.480;2024-01-16T15:40:14;4.40;52.50
1347;DHT22;667;48.796;9.480;2024-01-16T15:42:41;4.30;52.70
1347;DHT22;667;48.796;9.480;2024-01-16T15:45:07;4.20;53.00
1347;DHT22;667;48.796;9.480;2024-01-16T15:47:35;4.20;53.20
1347;DHT22;667;48.796;9.480;2024-01-16T15:50:01;4.10;53.30
1347;DHT22;667;48.796;9.480;2024-01-16T15:52:28;4.00;53.40
1347;DHT22;667;48.796;9.480;2024-01-16T15:54:53;3.90;53.20
1347;DHT22;667;48.796;9.480;2024-01-16T15:57:19;3.90;53.40
1347;DHT22;667;48.796;9.480;2024-01-16T15:59:44;3.80;53.70
1347;DHT22;667;48.796;9.480;2024-01-16T16:02:10;3.80;53.80
1347;DHT22;667;48.796;9.480;2024-01-16T16:04:36;3.70;53.70
1347;DHT22;667;48.796;9.480;2024-01-16T16:07:02;3.70;54.00
1347;DHT22;667;48.796;9.480;2024-01-16T16:09:28;3.70;54.30
1347;DHT22;667;48.796;9.480;2024-01-16T16:11:54;3.60;54.20
1347;DHT22;667;48.796;9.480;2024-01-16T16:14:20;3.60;54.10
1347;DHT22;667;48.796;9.480;2024-01-16T16:16:50;3.60;54.00
1347;DHT22;667;48.796;9.480;2024-01-16T16:19:16;3.60;53.80
1347;DHT22;667;48.796;9.480;2024-01-16T16:21:42;3.50;53.80
1347;DHT22;667;48.796;9.480;2024-01-16T16:24:07;3.50;54.00
1347;DHT22;667;48.796;9.480;2024-01-16T16:29:02;3.40;54.40
1347;DHT22;667;48.796;9.480;2024-01-16T16:31:28;3.40;54.80
1347;DHT22;667;48.796;9.480;2024-01-16T16:33:59;3.30;54.90
1347;DHT22;667;48.796;9.480;2024-01-16T16:36:25;3.30;55.10
1347;DHT22;667;48.796;9.480;2024-01-16T16:38:51;3.20;55.30
1347;DHT22;667;48.796;9.480;2024-01-16T16:41:16;3.20;55.40
1347;DHT22;667;48.796;9.480;2024-01-16T16:43:43;3.20;55.60